sensor_id;sensor_type;location;lat;lon;timestamp;P1;durP1;ratioP1;P2;durP2;ratioP2
28836;SDS011;50669;50.982;11.022;2023-02-28T00:01:19;9.02;;;6.03;;
28836;SDS011;50669;50.982;11.022;2023-02-28T00:03:44;9.82;;;6.55;;
28836;SDS011;50669;50.982;11.022;2023-02-28T00:06:13;11.38;;;6.70;;
28836;SDS011;50669;50.982;11.022;2023-02-28T00:08:38;8.25;;;6.13;;
28836;SDS011;50669;50.982;11.022;2023-02-28T00:11:05;11.55;;;7.28;;
28836;SDS011;50669;50.982;11.022;2023-02-28T00:13:33;12.52;;;6.47;;
28836;SDS011;50669;50.982;11.022;2023-02-28T00:16:02;10.82;;;6.72;;
28836;SDS011;50669;50.982;11.022;2023-02-28T00:18:30;9.63;;;6.63;;
28836;SDS011;50669;50.982;11.022;2023-02-28T00:20:55;12.68;;;6.85;;
28836;SDS011;50669;50.982;11.022;2023-02-28T00:23:21;12.88;;;6.45;;
28836;SDS011;50669;50.982;11.022;2023-02-28T00:25:47;10.40;;;6.55;;
28836;SDS011;50669;50.982;11.022;2023-02-28T00:28:16;9.50;;;5.70;;
28836;SDS011;50669;50.982;11.022;2023-02-28T00:30:42;10.60;;;6.15;;
28836;SDS011;50669;50.982;11.022;2023-02-28T00:33:12;8.57;;;6.38;;
28836;SDS011;50669;50.982;11.022;2023-02-28T00:35:38;12.15;;;6.75;;
28836;SDS011;50669;50.982;11.022;2023-02-28T00:38:03;10.80;;;7.43;;
28836;SDS011;50669;50.982;11.022;2023-02-28T00:40:29;14.82;;;6.82;;
28836;SDS011;50669;50.982;11.022;2023-02-28T00:42:57;8.18;;;6.10;;
28836;SDS011;50669;50.982;11.022;2023-02-28T00:45:23;11.52;;;6.63;;
28836;SDS011;50669;50.982;11.022;2023-02-28T00:47:50;9.63;;;6.47;;
28836;SDS011;50669;50.982;11.022;2023-02-28T00:50:19;10.65;;;7.07;;
28836;SDS011;50669;50.982;11.022;2023-02-28T00:52:47;10.43;;;7.07;;
28836;SDS011;50669;50.982;11.022;2023-02-28T00:55:13;9.18;;;6.60;;
28836;SDS011;50669;50.982;11.022;2023-02-28T00:57:39;10.77;;;6.78;;
28836;SDS011;50669;50.982;11.022;2023-02-28T01:00:08;9.55;;;6.93;;
28836;SDS011;50669;50.982;11.022;2023-02-28T01:02:37;11.23;;;6.75;;
28836;SDS011;50669;50.982;11.022;2023-02-28T01:05:02;10.00;;;6.43;;
28836;SDS011;50669;50.982;11.022;2023-02-28T01:07:29;12.43;;;7.45;;
28836;SDS011;50669;50.982;11.022;2023-02-28T01:09:57;11.32;;;6.65;;
28836;SDS011;50669;50.982;11.022;2023-02-28T01:12:22;9.75;;;6.10;;
28836;SDS011;50669;50.982;11.022;2023-02-28T01:14:51;10.98;;;6.65;;
28836;SDS011;50669;50.982;11.022;2023-02-28T01:17:18;11.68;;;6.82;;
28836;SDS011;50669;50.982;11.022;2023-02-28T01:19:47;10.63;;;6.55;;
28836;SDS011;50669;50.982;11.022;2023-02-28T01:22:12;11.20;;;6.25;;
28836;SDS011;50669;50.982;11.022;2023-02-28T01:24:38;9.93;;;5.82;;
28836;SDS011;50669;50.982;11.022;2023-02-28T01:27:03;11.75;;;6.60;;
28836;SDS011;50669;50.982;11.022;2023-02-28T01:29:29;10.30;;;6.07;;
28836;SDS011;50669;50.982;11.022;2023-02-28T01:31:55;8.55;;;5.68;;
28836;SDS011;50669;50.982;11.022;2023-02-28T01:34:22;8.27;;;5.90;;
28836;SDS011;50669;50.982;11.022;2023-02-28T01:36:47;11.50;;;5.88;;
28836;SDS011;50669;50.982;11.022;2023-02-28T01:39:13;7.28;;;5.50;;
28836;SDS011;50669;50.982;11.022;2023-02-28T01:41:41;8.48;;;6.20;;
28836;SDS011;50669;50.982;11.022;2023-02-28T01:44:53;10.90;;;6.63;;
28836;SDS011;50669;50.982;11.022;2023-02-28T01:47:11;10.10;;;6.03;;
28836;SDS011;50669;50.982;11.022;2023-02-28T01:49:39;9.68;;;5.97;;
28836;SDS011;50669;50.982;11.022;2023-02-28T01:52:05;7.63;;;5.50;;
28836;SDS011;50669;50.982;11.022;2023-02-28T01:54:34;10.40;;;6.47;;
28836;SDS011;50669;50.982;11.022;2023-02-28T01:57:04;9.27;;;5.97;;
28836;SDS011;50669;50.982;11.022;2023-02-28T01:59:35;9.82;;;6.20;;
28836;SDS011;50669;50.982;11.022;2023-02-28T02:02:09;16.45;;;5.97;;
28836;SDS011;50669;50.982;11.022;2023-02-28T02:04:42;9.60;;;6.13;;
28836;SDS011;50669;50.982;11.022;2023-02-28T02:07:19;8.93;;;6.00;;
28836;SDS011;50669;50.982;11.022;2023-02-28T02:09:45;10.57;;;5.95;;
28836;SDS011;50669;50.982;11.022;2023-02-28T02:15:19;10.25;;;5.90;;
28836;SDS011;50669;50.982;11.022;2023-02-28T02:17:57;11.20;;;6.90;;
28836;SDS011;50669;50.982;11.022;2023-02-28T02:23:19;9.70;;;5.82;;
28836;SDS011;50669;50.982;11.022;2023-02-28T02:39:48;10.20;;;5.32;;
28836;SDS011;50669;50.982;11.022;2023-02-28T02:42:29;8.30;;;5.10;;
28836;SDS011;50669;50.982;11.022;2023-02-28T02:45:01;13.13;;;5.78;;
28836;SDS011;50669;50.982;11.022;2023-02-28T02:47:37;10.68;;;5.30;;
28836;SDS011;50669;50.982;11.022;2023-02-28T02:50:07;9.18;;;4.88;;
28836;SDS011;50669;50.982;11.022;2023-02-28T02:52:39;8.02;;;4.82;;
28836;SDS011;50669;50.982;11.022;2023-02-28T02:55:12;6.88;;;4.60;;
28836;SDS011;50669;50.982;11.022;2023-02-28T02:57:46;12.82;;;5.57;;
28836;SDS011;50669;50.982;11.022;2023-02-28T03:00:26;8.65;;;4.53;;
28836;SDS011;50669;50.982;11.022;2023-02-28T03:03:09;9.38;;;4.90;;
28836;SDS011;50669;50.982;11.022;2023-02-28T03:05:42;7.75;;;4.85;;
28836;SDS011;50669;50.982;11.022;2023-02-28T03:08:12;8.07;;;4.80;;
28836;SDS011;50669;50.982;11.022;2023-02-28T03:10:39;6.88;;;4.45;;
28836;SDS011;50669;50.982;11.022;2023-02-28T03:19:18;10.68;;;5.07;;
28836;SDS011;50669;50.982;11.022;2023-02-28T03:27:30;9.40;;;5.00;;
28836;SDS011;50669;50.982;11.022;2023-02-28T03:30:16;10.15;;;5.60;;
28836;SDS011;50669;50.982;11.022;2023-02-28T03:32:53;8.00;;;5.32;;
28836;SDS011;50669;50.982;11.022;2023-02-28T03:35:25;9.00;;;5.53;;
28836;SDS011;50669;50.982;11.022;2023-02-28T03:38:00;8.80;;;5.25;;
28836;SDS011;50669;50.982;11.022;2023-02-28T03:40:32;9.10;;;5.68;;
28836;SDS011;50669;50.982;11.022;2023-02-28T03:43:07;14.27;;;8.07;;
28836;SDS011;50669;50.982;11.022;2023-02-28T03:45:38;13.98;;;7.25;;
28836;SDS011;50669;50.982;11.022;2023-02-28T03:48:17;12.93;;;6.75;;
28836;SDS011;50669;50.982;11.022;2023-02-28T03:50:53;10.07;;;5.93;;
28836;SDS011;50669;50.982;11.022;2023-02-28T03:56:06;17.10;;;7.65;;
28836;SDS011;50669;50.982;11.022;2023-02-28T03:58:53;8.88;;;6.03;;
28836;SDS011;50669;50.982;11.022;2023-02-28T04:01:33;13.25;;;6.80;;
28836;SDS011;50669;50.982;11.022;2023-02-28T04:04:01;11.68;;;6.10;;
28836;SDS011;50669;50.982;11.022;2023-02-28T04:06:27;13.93;;;6.18;;
28836;SDS011;50669;50.982;11.022;2023-02-28T04:08:55;11.98;;;6.43;;
28836;SDS011;50669;50.982;11.022;2023-02-28T04:11:25;12.50;;;6.13;;
28836;SDS011;50669;50.982;11.022;2023-02-28T04:14:00;12.05;;;6.60;;
28836;SDS011;50669;50.982;11.022;2023-02-28T04:16:30;11.32;;;7.03;;
28836;SDS011;50669;50.982;11.022;2023-02-28T04:18:57;8.85;;;6.13;;
28836;SDS011;50669;50.982;11.022;2023-02-28T04:21:28;12.38;;;6.22;;
28836;SDS011;50669;50.982;11.022;2023-02-28T04:23:55;10.98;;;6.50;;
28836;SDS011;50669;50.982;11.022;2023-02-28T04:26:27;10.07;;;6.78;;
28836;SDS011;50669;50.982;11.022;2023-02-28T04:29:04;8.52;;;5.75;;
28836;SDS011;50669;50.982;11.022;2023-02-28T04:31:33;9.25;;;5.80;;
28836;SDS011;50669;50.982;11.022;2023-02-28T04:33:59;13.98;;;6.18;;
28836;SDS011;50669;50.982;11.022;2023-02-28T04:36:25;14.68;;;7.13;;
28836;SDS011;50669;50.982;11.022;2023-02-28T04:38:53;11.82;;;6.35;;
28836;SDS011;50669;50.982;11.022;2023-02-28T04:41:19;14.50;;;6.35;;
28836;SDS011;50669;50.982;11.022;2023-02-28T04:43:45;10.50;;;6.68;;
28836;SDS011;50669;50.982;11.022;2023-02-28T04:46:11;13.77;;;6.47;;
28836;SDS011;50669;50.982;11.022;2023-02-28T04:48:37;9.40;;;5.85;;
28836;SDS011;50669;50.982;11.022;2023-02-28T04:51:07;9.20;;;6.32;;
28836;SDS011;50669;50.982;11.022;2023-02-28T04:53:34;9.68;;;6.32;;
28836;SDS011;50669;50.982;11.022;2023-02-28T04:56:04;11.77;;;6.78;;
28836;SDS011;50669;50.982;11.022;2023-02-28T04:58:33;10.65;;;6.95;;
28836;SDS011;50669;50.982;11.022;2023-02-28T05:01:06;12.30;;;6.60;;
28836;SDS011;50669;50.982;11.022;2023-02-28T05:03:42;8.10;;;4.85;;
28836;SDS011;50669;50.982;11.022;2023-02-28T05:06:11;10.63;;;6.15;;
28836;SDS011;50669;50.982;11.022;2023-02-28T05:08:40;18.55;;;6.93;;
28836;SDS011;50669;50.982;11.022;2023-02-28T05:11:07;11.10;;;6.10;;
28836;SDS011;50669;50.982;11.022;2023-02-28T05:13:38;13.32;;;5.65;;
28836;SDS011;50669;50.982;11.022;2023-02-28T05:16:04;10.82;;;5.88;;
28836;SDS011;50669;50.982;11.022;2023-02-28T05:18:30;13.23;;;6.43;;
28836;SDS011;50669;50.982;11.022;2023-02-28T05:20:56;13.65;;;5.82;;
28836;SDS011;50669;50.982;11.022;2023-02-28T05:23:26;10.35;;;5.80;;
28836;SDS011;50669;50.982;11.022;2023-02-28T05:25:54;11.60;;;5.70;;
28836;SDS011;50669;50.982;11.022;2023-02-28T05:28:21;12.13;;;5.97;;
28836;SDS011;50669;50.982;11.022;2023-02-28T05:30:49;12.57;;;5.97;;
28836;SDS011;50669;50.982;11.022;2023-02-28T05:33:14;9.20;;;4.43;;
28836;SDS011;50669;50.982;11.022;2023-02-28T05:35:42;8.95;;;5.53;;
28836;SDS011;50669;50.982;11.022;2023-02-28T05:38:11;14.13;;;5.30;;
28836;SDS011;50669;50.982;11.022;2023-02-28T05:40:39;9.35;;;5.05;;
28836;SDS011;50669;50.982;11.022;2023-02-28T05:43:09;13.30;;;5.90;;
28836;SDS011;50669;50.982;11.022;2023-02-28T05:45:38;11.75;;;5.93;;
28836;SDS011;50669;50.982;11.022;2023-02-28T05:48:04;17.70;;;6.10;;
28836;SDS011;50669;50.982;11.022;2023-02-28T05:50:29;18.17;;;6.05;;
28836;SDS011;50669;50.982;11.022;2023-02-28T05:52:55;16.80;;;6.68;;
28836;SDS011;50669;50.982;11.022;2023-02-28T05:55:21;12.18;;;5.80;;
28836;SDS011;50669;50.982;11.022;2023-02-28T05:57:48;9.55;;;5.18;;
28836;SDS011;50669;50.982;11.022;2023-02-28T06:00:14;17.48;;;6.38;;
28836;SDS011;50669;50.982;11.022;2023-02-28T06:02:45;10.20;;;5.53;;
28836;SDS011;50669;50.982;11.022;2023-02-28T06:05:12;10.48;;;5.90;;
28836;SDS011;50669;50.982;11.022;2023-02-28T06:07:39;12.20;;;5.55;;
28836;SDS011;50669;50.982;11.022;2023-02-28T06:10:05;12.93;;;5.97;;
28836;SDS011;50669;50.982;11.022;2023-02-28T06:12:34;10.32;;;5.82;;
28836;SDS011;50669;50.982;11.022;2023-02-28T06:14:59;10.90;;;6.88;;
28836;SDS011;50669;50.982;11.022;2023-02-28T06:17:27;9.57;;;5.75;;
28836;SDS011;50669;50.982;11.022;2023-02-28T06:19:55;9.10;;;5.50;;
28836;SDS011;50669;50.982;11.022;2023-02-28T06:22:21;12.18;;;6.18;;
28836;SDS011;50669;50.982;11.022;2023-02-28T06:24:46;20.05;;;7.15;;
28836;SDS011;50669;50.982;11.022;2023-02-28T06:27:12;15.23;;;6.13;;
28836;SDS011;50669;50.982;11.022;2023-02-28T06:29:38;20.63;;;7.13;;
28836;SDS011;50669;50.982;11.022;2023-02-28T06:32:05;10.70;;;5.35;;
28836;SDS011;50669;50.982;11.022;2023-02-28T06:34:31;13.05;;;6.78;;
28836;SDS011;50669;50.982;11.022;2023-02-28T06:36:58;18.30;;;6.18;;
28836;SDS011;50669;50.982;11.022;2023-02-28T06:39:28;11.57;;;5.38;;
28836;SDS011;50669;50.982;11.022;2023-02-28T06:41:54;12.55;;;5.95;;
28836;SDS011;50669;50.982;11.022;2023-02-28T06:44:23;14.57;;;6.15;;
28836;SDS011;50669;50.982;11.022;2023-02-28T06:46:53;28.80;;;7.10;;
28836;SDS011;50669;50.982;11.022;2023-02-28T06:49:19;30.67;;;7.07;;
28836;SDS011;50669;50.982;11.022;2023-02-28T06:51:49;31.83;;;9.75;;
28836;SDS011;50669;50.982;11.022;2023-02-28T06:54:16;19.02;;;8.38;;
28836;SDS011;50669;50.982;11.022;2023-02-28T06:56:42;14.32;;;6.35;;
28836;SDS011;50669;50.982;11.022;2023-02-28T06:59:08;19.90;;;6.18;;
28836;SDS011;50669;50.982;11.022;2023-02-28T07:01:36;24.25;;;7.25;;
28836;SDS011;50669;50.982;11.022;2023-02-28T07:04:06;22.10;;;6.80;;
28836;SDS011;50669;50.982;11.022;2023-02-28T07:06:34;30.30;;;6.30;;
28836;SDS011;50669;50.982;11.022;2023-02-28T07:09:07;17.00;;;6.63;;
28836;SDS011;50669;50.982;11.022;2023-02-28T07:11:33;24.95;;;7.15;;
28836;SDS011;50669;50.982;11.022;2023-02-28T07:13:59;19.55;;;6.32;;
28836;SDS011;50669;50.982;11.022;2023-02-28T07:16:26;20.55;;;6.75;;
28836;SDS011;50669;50.982;11.022;2023-02-28T07:18:53;19.23;;;6.38;;
28836;SDS011;50669;50.982;11.022;2023-02-28T07:21:19;21.17;;;6.97;;
28836;SDS011;50669;50.982;11.022;2023-02-28T07:23:45;22.08;;;6.15;;
28836;SDS011;50669;50.982;11.022;2023-02-28T07:26:12;18.38;;;6.57;;
28836;SDS011;50669;50.982;11.022;2023-02-28T07:28:43;17.70;;;6.35;;
28836;SDS011;50669;50.982;11.022;2023-02-28T07:31:10;16.45;;;6.47;;
28836;SDS011;50669;50.982;11.022;2023-02-28T07:33:37;16.95;;;5.45;;
28836;SDS011;50669;50.982;11.022;2023-02-28T07:36:04;19.70;;;5.78;;
28836;SDS011;50669;50.982;11.022;2023-02-28T07:38:34;14.98;;;5.40;;
28836;SDS011;50669;50.982;11.022;2023-02-28T07:41:02;17.38;;;5.95;;
28836;SDS011;50669;50.982;11.022;2023-02-28T07:43:33;14.55;;;5.65;;
28836;SDS011;50669;50.982;11.022;2023-02-28T07:46:08;22.27;;;6.00;;
28836;SDS011;50669;50.982;11.022;2023-02-28T07:48:37;16.15;;;5.30;;
28836;SDS011;50669;50.982;11.022;2023-02-28T07:51:03;15.45;;;5.88;;
28836;SDS011;50669;50.982;11.022;2023-02-28T07:53:32;12.75;;;5.85;;
28836;SDS011;50669;50.982;11.022;2023-02-28T07:55:58;13.95;;;5.78;;
28836;SDS011;50669;50.982;11.022;2023-02-28T07:58:27;15.43;;;5.50;;
28836;SDS011;50669;50.982;11.022;2023-02-28T08:00:55;14.75;;;6.00;;
28836;SDS011;50669;50.982;11.022;2023-02-28T08:03:21;13.68;;;6.45;;
28836;SDS011;50669;50.982;11.022;2023-02-28T08:05:50;16.60;;;5.35;;
28836;SDS011;50669;50.982;11.022;2023-02-28T08:08:18;18.40;;;5.82;;
28836;SDS011;50669;50.982;11.022;2023-02-28T08:10:43;15.95;;;5.43;;
28836;SDS011;50669;50.982;11.022;2023-02-28T08:13:09;12.43;;;5.35;;
28836;SDS011;50669;50.982;11.022;2023-02-28T08:15:35;18.13;;;5.43;;
28836;SDS011;50669;50.982;11.022;2023-02-28T08:18:01;13.10;;;5.85;;
28836;SDS011;50669;50.982;11.022;2023-02-28T08:20:27;17.48;;;6.07;;
28836;SDS011;50669;50.982;11.022;2023-02-28T08:22:53;14.93;;;5.40;;
28836;SDS011;50669;50.982;11.022;2023-02-28T08:25:18;19.85;;;5.47;;
28836;SDS011;50669;50.982;11.022;2023-02-28T08:27:44;12.40;;;5.50;;
28836;SDS011;50669;50.982;11.022;2023-02-28T08:30:13;17.77;;;6.00;;
28836;SDS011;50669;50.982;11.022;2023-02-28T08:32:39;10.88;;;5.40;;
28836;SDS011;50669;50.982;11.022;2023-02-28T08:35:08;11.88;;;5.35;;
28836;SDS011;50669;50.982;11.022;2023-02-28T08:37:34;12.70;;;5.38;;
28836;SDS011;50669;50.982;11.022;2023-02-28T08:40:02;10.77;;;5.63;;
28836;SDS011;50669;50.982;11.022;2023-02-28T08:42:29;15.43;;;5.35;;
28836;SDS011;50669;50.982;11.022;2023-02-28T08:44:54;12.45;;;5.50;;
28836;SDS011;50669;50.982;11.022;2023-02-28T08:47:22;12.82;;;5.38;;
28836;SDS011;50669;50.982;11.022;2023-02-28T08:49:48;11.45;;;5.18;;
28836;SDS011;50669;50.982;11.022;2023-02-28T08:52:18;10.45;;;5.07;;
28836;SDS011;50669;50.982;11.022;2023-02-28T08:54:46;12.85;;;5.38;;
28836;SDS011;50669;50.982;11.022;2023-02-28T08:57:12;12.13;;;5.18;;
28836;SDS011;50669;50.982;11.022;2023-02-28T08:59:38;11.35;;;4.80;;
28836;SDS011;50669;50.982;11.022;2023-02-28T09:02:04;13.23;;;5.63;;
28836;SDS011;50669;50.982;11.022;2023-02-28T09:04:29;12.15;;;4.85;;
28836;SDS011;50669;50.982;11.022;2023-02-28T09:06:58;13.88;;;6.32;;
28836;SDS011;50669;50.982;11.022;2023-02-28T09:09:23;12.20;;;5.40;;
28836;SDS011;50669;50.982;11.022;2023-02-28T09:11:52;10.00;;;5.25;;
28836;SDS011;50669;50.982;11.022;2023-02-28T09:14:20;11.90;;;4.88;;
28836;SDS011;50669;50.982;11.022;2023-02-28T09:16:45;10.77;;;5.45;;
28836;SDS011;50669;50.982;11.022;2023-02-28T09:19:11;11.40;;;5.00;;
28836;SDS011;50669;50.982;11.022;2023-02-28T09:21:37;13.80;;;5.05;;
28836;SDS011;50669;50.982;11.022;2023-02-28T09:24:03;9.63;;;4.80;;
28836;SDS011;50669;50.982;11.022;2023-02-28T09:26:29;9.45;;;4.72;;
28836;SDS011;50669;50.982;11.022;2023-02-28T09:28:57;10.25;;;4.72;;
28836;SDS011;50669;50.982;11.022;2023-02-28T09:31:26;10.60;;;4.57;;
28836;SDS011;50669;50.982;11.022;2023-02-28T09:33:54;9.73;;;4.82;;
28836;SDS011;50669;50.982;11.022;2023-02-28T09:36:22;9.18;;;4.80;;
28836;SDS011;50669;50.982;11.022;2023-02-28T09:38:50;11.50;;;5.10;;
28836;SDS011;50669;50.982;11.022;2023-02-28T09:41:37;9.52;;;4.85;;
28836;SDS011;50669;50.982;11.022;2023-02-28T09:44:12;9.13;;;4.13;;
28836;SDS011;50669;50.982;11.022;2023-02-28T09:47:05;11.25;;;4.93;;
28836;SDS011;50669;50.982;11.022;2023-02-28T09:49:42;7.88;;;4.10;;
28836;SDS011;50669;50.982;11.022;2023-02-28T09:52:44;8.48;;;4.30;;
28836;SDS011;50669;50.982;11.022;2023-02-28T09:57:47;8.93;;;4.32;;
28836;SDS011;50669;50.982;11.022;2023-02-28T10:02:55;8.32;;;4.30;;
28836;SDS011;50669;50.982;11.022;2023-02-28T10:05:40;9.60;;;3.92;;
28836;SDS011;50669;50.982;11.022;2023-02-28T10:10:50;13.00;;;4.93;;
28836;SDS011;50669;50.982;11.022;2023-02-28T10:15:46;9.50;;;4.82;;
28836;SDS011;50669;50.982;11.022;2023-02-28T10:18:20;7.13;;;4.07;;
28836;SDS011;50669;50.982;11.022;2023-02-28T10:20:55;8.52;;;4.10;;
28836;SDS011;50669;50.982;11.022;2023-02-28T10:23:31;10.00;;;4.72;;
28836;SDS011;50669;50.982;11.022;2023-02-28T10:26:05;8.10;;;4.15;;
28836;SDS011;50669;50.982;11.022;2023-02-28T10:28:36;9.05;;;4.60;;
28836;SDS011;50669;50.982;11.022;2023-02-28T10:31:02;9.13;;;4.40;;
28836;SDS011;50669;50.982;11.022;2023-02-28T10:33:29;8.07;;;4.57;;
28836;SDS011;50669;50.982;11.022;2023-02-28T10:35:59;9.43;;;4.93;;
28836;SDS011;50669;50.982;11.022;2023-02-28T10:38:31;7.43;;;4.25;;
28836;SDS011;50669;50.982;11.022;2023-02-28T10:41:09;7.63;;;4.03;;
28836;SDS011;50669;50.982;11.022;2023-02-28T10:43:43;8.73;;;4.20;;
28836;SDS011;50669;50.982;11.022;2023-02-28T10:48:39;9.52;;;4.45;;
28836;SDS011;50669;50.982;11.022;2023-02-28T10:51:25;9.00;;;4.28;;
28836;SDS011;50669;50.982;11.022;2023-02-28T10:53:59;6.07;;;3.92;;
28836;SDS011;50669;50.982;11.022;2023-02-28T10:56:25;8.70;;;3.72;;
28836;SDS011;50669;50.982;11.022;2023-02-28T11:01:47;9.15;;;4.47;;
28836;SDS011;50669;50.982;11.022;2023-02-28T11:07:17;9.38;;;4.47;;
28836;SDS011;50669;50.982;11.022;2023-02-28T11:09:45;7.97;;;4.60;;
28836;SDS011;50669;50.982;11.022;2023-02-28T11:12:23;7.32;;;4.03;;
28836;SDS011;50669;50.982;11.022;2023-02-28T11:15:27;9.38;;;4.10;;
28836;SDS011;50669;50.982;11.022;2023-02-28T11:20:40;6.90;;;4.00;;
28836;SDS011;50669;50.982;11.022;2023-02-28T11:23:10;6.13;;;3.60;;
28836;SDS011;50669;50.982;11.022;2023-02-28T11:25:39;8.77;;;4.00;;
28836;SDS011;50669;50.982;11.022;2023-02-28T11:36:23;8.23;;;4.22;;
28836;SDS011;50669;50.982;11.022;2023-02-28T11:39:04;6.70;;;3.95;;
28836;SDS011;50669;50.982;11.022;2023-02-28T11:46:58;8.30;;;3.97;;
28836;SDS011;50669;50.982;11.022;2023-02-28T12:09:38;6.82;;;4.07;;
28836;SDS011;50669;50.982;11.022;2023-02-28T12:12:15;6.82;;;3.78;;
28836;SDS011;50669;50.982;11.022;2023-02-28T12:20:18;7.00;;;3.78;;
28836;SDS011;50669;50.982;11.022;2023-02-28T12:28:24;6.93;;;4.00;;
28836;SDS011;50669;50.982;11.022;2023-02-28T12:31:11;6.43;;;3.50;;
28836;SDS011;50669;50.982;11.022;2023-02-28T12:33:48;5.40;;;3.35;;
28836;SDS011;50669;50.982;11.022;2023-02-28T12:36:18;6.50;;;4.28;;
28836;SDS011;50669;50.982;11.022;2023-02-28T12:41:48;6.10;;;3.30;;
28836;SDS011;50669;50.982;11.022;2023-02-28T12:44:12;9.82;;;4.13;;
28836;SDS011;50669;50.982;11.022;2023-02-28T12:46:45;6.45;;;3.80;;
28836;SDS011;50669;50.982;11.022;2023-02-28T12:49:23;5.70;;;3.60;;
28836;SDS011;50669;50.982;11.022;2023-02-28T12:51:52;6.50;;;3.85;;
28836;SDS011;50669;50.982;11.022;2023-02-28T12:54:23;6.90;;;3.47;;
28836;SDS011;50669;50.982;11.022;2023-02-28T12:59:26;7.20;;;3.85;;
28836;SDS011;50669;50.982;11.022;2023-02-28T13:10:49;6.18;;;3.38;;
28836;SDS011;50669;50.982;11.022;2023-02-28T13:13:22;5.10;;;3.15;;
28836;SDS011;50669;50.982;11.022;2023-02-28T13:21:06;6.15;;;3.92;;
28836;SDS011;50669;50.982;11.022;2023-02-28T13:34:31;6.25;;;3.92;;
28836;SDS011;50669;50.982;11.022;2023-02-28T13:37:41;6.60;;;3.30;;
28836;SDS011;50669;50.982;11.022;2023-02-28T13:39:48;5.47;;;3.22;;
28836;SDS011;50669;50.982;11.022;2023-02-28T13:47:34;7.32;;;3.97;;
28836;SDS011;50669;50.982;11.022;2023-02-28T13:52:44;5.43;;;3.03;;
28836;SDS011;50669;50.982;11.022;2023-02-28T13:55:24;4.88;;;2.92;;
28836;SDS011;50669;50.982;11.022;2023-02-28T13:58:23;4.80;;;3.40;;
28836;SDS011;50669;50.982;11.022;2023-02-28T14:09:02;5.05;;;3.17;;
28836;SDS011;50669;50.982;11.022;2023-02-28T14:11:40;5.80;;;3.58;;
28836;SDS011;50669;50.982;11.022;2023-02-28T14:14:08;4.53;;;3.17;;
28836;SDS011;50669;50.982;11.022;2023-02-28T14:16:54;5.47;;;3.00;;
28836;SDS011;50669;50.982;11.022;2023-02-28T14:19:28;5.68;;;3.15;;
28836;SDS011;50669;50.982;11.022;2023-02-28T14:22:00;6.15;;;3.00;;
28836;SDS011;50669;50.982;11.022;2023-02-28T14:33:17;5.03;;;3.10;;
28836;SDS011;50669;50.982;11.022;2023-02-28T14:36:21;5.05;;;3.17;;
28836;SDS011;50669;50.982;11.022;2023-02-28T14:38:53;8.05;;;3.40;;
28836;SDS011;50669;50.982;11.022;2023-02-28T14:43:52;5.57;;;3.30;;
28836;SDS011;50669;50.982;11.022;2023-02-28T14:46:20;4.80;;;2.88;;
28836;SDS011;50669;50.982;11.022;2023-02-28T14:48:47;5.25;;;3.40;;
28836;SDS011;50669;50.982;11.022;2023-02-28T14:51:22;7.05;;;3.22;;
28836;SDS011;50669;50.982;11.022;2023-02-28T14:53:52;6.28;;;3.47;;
28836;SDS011;50669;50.982;11.022;2023-02-28T14:56:35;6.07;;;3.17;;
28836;SDS011;50669;50.982;11.022;2023-02-28T14:59:05;5.78;;;3.20;;
28836;SDS011;50669;50.982;11.022;2023-02-28T15:01:46;5.97;;;3.72;;
28836;SDS011;50669;50.982;11.022;2023-02-28T15:04:18;4.10;;;2.50;;
28836;SDS011;50669;50.982;11.022;2023-02-28T15:07:23;6.32;;;3.03;;
28836;SDS011;50669;50.982;11.022;2023-02-28T15:09:42;4.15;;;2.67;;
28836;SDS011;50669;50.982;11.022;2023-02-28T15:12:07;4.75;;;2.97;;
28836;SDS011;50669;50.982;11.022;2023-02-28T15:14:41;4.50;;;2.80;;
28836;SDS011;50669;50.982;11.022;2023-02-28T15:17:11;4.38;;;3.00;;
28836;SDS011;50669;50.982;11.022;2023-02-28T15:19:47;5.28;;;3.08;;
28836;SDS011;50669;50.982;11.022;2023-02-28T15:22:18;3.95;;;2.60;;
28836;SDS011;50669;50.982;11.022;2023-02-28T15:27:22;4.30;;;2.97;;
28836;SDS011;50669;50.982;11.022;2023-02-28T15:29:56;4.30;;;3.05;;
28836;SDS011;50669;50.982;11.022;2023-02-28T15:32:28;4.13;;;2.80;;
28836;SDS011;50669;50.982;11.022;2023-02-28T15:34:59;4.18;;;2.70;;
28836;SDS011;50669;50.982;11.022;2023-02-28T15:37:53;5.15;;;2.95;;
28836;SDS011;50669;50.982;11.022;2023-02-28T15:48:21;5.28;;;3.15;;
28836;SDS011;50669;50.982;11.022;2023-02-28T15:50:56;4.20;;;2.88;;
28836;SDS011;50669;50.982;11.022;2023-02-28T15:53:30;4.20;;;2.75;;
28836;SDS011;50669;50.982;11.022;2023-02-28T15:56:03;4.05;;;3.17;;
28836;SDS011;50669;50.982;11.022;2023-02-28T15:58:32;3.15;;;2.45;;
28836;SDS011;50669;50.982;11.022;2023-02-28T16:01:04;4.72;;;2.75;;
28836;SDS011;50669;50.982;11.022;2023-02-28T16:03:44;4.45;;;2.60;;
28836;SDS011;50669;50.982;11.022;2023-02-28T16:09:03;4.80;;;2.92;;
28836;SDS011;50669;50.982;11.022;2023-02-28T16:11:33;4.40;;;2.92;;
28836;SDS011;50669;50.982;11.022;2023-02-28T16:14:01;4.55;;;3.33;;
28836;SDS011;50669;50.982;11.022;2023-02-28T16:16:28;3.95;;;2.85;;
28836;SDS011;50669;50.982;11.022;2023-02-28T16:18:53;4.60;;;2.80;;
28836;SDS011;50669;50.982;11.022;2023-02-28T16:21:20;4.53;;;2.72;;
28836;SDS011;50669;50.982;11.022;2023-02-28T16:23:45;6.47;;;2.75;;
28836;SDS011;50669;50.982;11.022;2023-02-28T16:26:29;4.50;;;2.53;;
28836;SDS011;50669;50.982;11.022;2023-02-28T16:28:55;3.60;;;2.78;;
28836;SDS011;50669;50.982;11.022;2023-02-28T16:31:20;5.50;;;2.88;;
28836;SDS011;50669;50.982;11.022;2023-02-28T16:33:46;4.78;;;2.63;;
28836;SDS011;50669;50.982;11.022;2023-02-28T16:36:19;5.45;;;3.10;;
28836;SDS011;50669;50.982;11.022;2023-02-28T16:38:46;6.32;;;3.05;;
28836;SDS011;50669;50.982;11.022;2023-02-28T16:41:12;4.68;;;2.97;;
28836;SDS011;50669;50.982;11.022;2023-02-28T16:43:44;5.63;;;3.20;;
28836;SDS011;50669;50.982;11.022;2023-02-28T16:48:45;4.28;;;2.85;;
28836;SDS011;50669;50.982;11.022;2023-02-28T16:51:16;4.05;;;3.00;;
28836;SDS011;50669;50.982;11.022;2023-02-28T16:53:44;3.72;;;2.40;;
28836;SDS011;50669;50.982;11.022;2023-02-28T16:56:15;4.40;;;3.05;;
28836;SDS011;50669;50.982;11.022;2023-02-28T16:58:48;4.32;;;3.00;;
28836;SDS011;50669;50.982;11.022;2023-02-28T17:01:15;3.42;;;2.38;;
28836;SDS011;50669;50.982;11.022;2023-02-28T17:03:47;3.92;;;2.85;;
28836;SDS011;50669;50.982;11.022;2023-02-28T17:06:26;3.85;;;2.70;;
28836;SDS011;50669;50.982;11.022;2023-02-28T17:08:56;3.83;;;2.80;;
28836;SDS011;50669;50.982;11.022;2023-02-28T17:11:23;4.15;;;2.90;;
28836;SDS011;50669;50.982;11.022;2023-02-28T17:13:49;4.05;;;2.67;;
28836;SDS011;50669;50.982;11.022;2023-02-28T17:16:33;4.18;;;2.45;;
28836;SDS011;50669;50.982;11.022;2023-02-28T17:19:05;3.72;;;2.65;;
28836;SDS011;50669;50.982;11.022;2023-02-28T17:21:32;3.20;;;2.22;;
28836;SDS011;50669;50.982;11.022;2023-02-28T17:23:59;4.18;;;2.70;;
28836;SDS011;50669;50.982;11.022;2023-02-28T17:26:25;3.55;;;2.80;;
28836;SDS011;50669;50.982;11.022;2023-02-28T17:28:54;3.70;;;2.60;;
28836;SDS011;50669;50.982;11.022;2023-02-28T17:31:23;4.30;;;2.42;;
28836;SDS011;50669;50.982;11.022;2023-02-28T17:33:50;3.22;;;2.45;;
28836;SDS011;50669;50.982;11.022;2023-02-28T17:36:17;4.30;;;2.85;;
28836;SDS011;50669;50.982;11.022;2023-02-28T17:38:47;4.40;;;2.83;;
28836;SDS011;50669;50.982;11.022;2023-02-28T17:41:14;4.93;;;2.80;;